Terminal Aerodrome Forecast
Issued by NWS

Home | Current Version | Previous Version | Text Only | Print | Product List | Glossary On
Versions: 1 2 3 4 5 6 7 8 9 10 11 12 13 14 15 16 17 18 19 20 21 22 23 24 25 26 27 28 29 30
877
FTUS44 KLIX 210309 AAA
TAFHUM
TAF AMD
KHUM 210309Z 2103/2124 15006KT 5SM BR BKN004
     FM210600 18005KT 5SM -SHRA OVC010
      TEMPO 2108/2111 23025G45KT 1/2SM +TSRA BKN012CB
     FM211500 20009KT P6SM OVC015
     FM211800 21011KT P6SM BKN022=

USA.gov is the U.S. government's official web portal to all federal, state and local government web resources and services.